Time,TemperatureF,DewpointF,PressureIn,WindDirection,WindDirectionDegrees,WindSpeedMPH,WindSpeedGustMPH,Humidity,HourlyPrecipIn,Conditions,Clouds,dailyrainin,SoftwareType,DateUTC
2013-04-01 00:02:00,28.0,19.0,29.71,NNW,348,7.0,11.0,69,0.00,,,0.00,,2013-04-01 05:02:00,
2013-04-01 00:12:00,28.0,19.0,29.71,NNW,348,7.0,11.0,69,0.00,,,0.00,,2013-04-01 05:12:00,
2013-04-01 00:22:00,28.0,19.0,29.72,North,349,6.0,11.0,69,0.00,,,0.00,,2013-04-01 05:22:00,
2013-04-01 00:32:00,28.0,20.0,29.72,North,353,7.0,13.0,70,0.00,,,0.00,,2013-04-01 05:32:00,
2013-04-01 00:42:00,28.0,20.0,29.72,North,353,7.0,13.0,70,0.00,,,0.00,,2013-04-01 05:42:00,
2013-04-01 00:53:00,28.0,18.0,29.72,NNW,343,7.0,13.0,67,0.00,,,0.00,,2013-04-01 05:53:00,
2013-04-01 01:02:00,27.0,15.0,29.73,NNW,342,8.0,12.0,60,0.00,,,0.00,,2013-04-01 06:02:00,
2013-04-01 01:12:00,27.0,15.0,29.73,NNW,342,8.0,12.0,60,0.00,,,0.00,,2013-04-01 06:12:00,
2013-04-01 01:22:00,27.0,15.0,29.73,NNW,342,8.0,12.0,60,0.00,,,0.00,,2013-04-01 06:22:00,
2013-04-01 01:33:00,27.0,13.0,29.74,NNW,343,12.0,24.0,56,0.00,,,0.00,,2013-04-01 06:33:00,
2013-04-01 01:42:00,27.0,13.0,29.74,NNW,343,12.0,24.0,56,0.00,,,0.00,,2013-04-01 06:42:00,
2013-04-01 01:53:00,27.0,14.0,29.75,NNW,342,10.0,16.0,58,0.00,,,0.00,,2013-04-01 06:53:00,
2013-04-01 02:02:00,27.0,14.0,29.75,NNW,345,11.0,19.0,58,0.00,,,0.00,,2013-04-01 07:02:00,
2013-04-01 02:12:00,27.0,14.0,29.75,NNW,345,11.0,19.0,58,0.00,,,0.00,,2013-04-01 07:12:00,
2013-04-01 02:22:00,26.0,12.0,29.75,NNW,347,12.0,18.0,55,0.00,,,0.00,,2013-04-01 07:22:00,
2013-04-01 02:32:00,26.0,12.0,29.75,NNW,347,12.0,18.0,55,0.00,,,0.00,,2013-04-01 07:32:00,
2013-04-01 02:42:00,26.0,12.0,29.75,NNW,347,12.0,18.0,55,0.00,,,0.00,,2013-04-01 07:42:00,
2013-04-01 02:53:00,26.0,12.0,29.75,NNW,347,12.0,18.0,55,0.00,,,0.00,,2013-04-01 07:53:00,
2013-04-01 03:02:00,25.0,12.0,29.77,NNW,343,13.0,20.0,57,0.00,,,0.00,,2013-04-01 08:02:00,
2013-04-01 03:12:00,25.0,12.0,29.77,NNW,343,13.0,20.0,57,0.00,,,0.00,,2013-04-01 08:12:00,
2013-04-01 03:22:00,25.0,12.0,29.78,NNW,342,11.0,18.0,58,0.00,,,0.00,,2013-04-01 08:22:00,
2013-04-01 03:32:00,25.0,12.0,29.78,NNW,342,11.0,18.0,58,0.00,,,0.00,,2013-04-01 08:32:00,
2013-04-01 03:43:00,25.0,12.0,29.78,NNW,342,11.0,18.0,58,0.00,,,0.00,,2013-04-01 08:43:00,
2013-04-01 03:53:00,24.0,11.0,29.79,NNW,339,9.0,16.0,58,0.00,,,0.00,,2013-04-01 08:53:00,
2013-04-01 04:02:00,24.0,11.0,29.79,NNW,338,8.0,14.0,58,0.00,,,0.00,,2013-04-01 09:02:00,
2013-04-01 04:12:00,24.0,11.0,29.79,NNW,338,8.0,14.0,58,0.00,,,0.00,,2013-04-01 09:12:00,
2013-04-01 04:22:00,24.0,11.0,29.79,NNW,341,11.0,18.0,58,0.00,,,0.00,,2013-04-01 09:22:00,
2013-04-01 04:33:00,24.0,12.0,29.80,NNW,340,8.0,13.0,60,0.00,,,0.00,,2013-04-01 09:33:00,
2013-04-01 04:42:00,24.0,12.0,29.80,NNW,340,8.0,13.0,60,0.00,,,0.00,,2013-04-01 09:42:00,
2013-04-01 04:53:00,24.0,12.0,29.81,NNW,346,11.0,20.0,60,0.00,,,0.00,,2013-04-01 09:53:00,
2013-04-01 05:03:00,24.0,13.0,29.81,NNW,345,9.0,20.0,61,0.00,,,0.00,,2013-04-01 10:03:00,
2013-04-01 05:12:00,24.0,13.0,29.81,NNW,345,9.0,20.0,61,0.00,,,0.00,,2013-04-01 10:12:00,
2013-04-01 05:23:00,23.0,12.0,29.82,NNW,348,8.0,13.0,61,0.00,,,0.00,,2013-04-01 10:23:00,
2013-04-01 05:33:00,23.0,12.0,29.83,NNW,344,7.0,11.0,62,0.00,,,0.00,,2013-04-01 10:33:00,
2013-04-01 05:42:00,23.0,12.0,29.83,NNW,344,7.0,11.0,62,0.00,,,0.00,,2013-04-01 10:42:00,
2013-04-01 05:53:00,23.0,12.0,29.83,NNW,344,7.0,11.0,62,0.00,,,0.00,,2013-04-01 10:53:00,
2013-04-01 06:03:00,23.0,12.0,29.83,NNW,343,11.0,21.0,63,0.00,,,0.00,,2013-04-01 11:03:00,
2013-04-01 06:12:00,23.0,12.0,29.83,NNW,343,11.0,21.0,63,0.00,,,0.00,,2013-04-01 11:12:00,
2013-04-01 06:23:00,23.0,13.0,29.84,NNW,346,9.0,17.0,66,0.00,,,0.00,,2013-04-01 11:23:00,
2013-04-01 06:33:00,23.0,13.0,29.84,NNW,344,8.0,14.0,66,0.00,,,0.00,,2013-04-01 11:33:00,
2013-04-01 06:42:00,23.0,13.0,29.84,NNW,344,8.0,14.0,66,0.00,,,0.00,,2013-04-01 11:42:00,
2013-04-01 06:53:00,23.0,13.0,29.85,NNW,342,9.0,15.0,65,0.00,,,0.00,,2013-04-01 11:53:00,
2013-04-01 07:02:00,23.0,13.0,29.86,NNW,337,7.0,14.0,64,0.00,,,0.00,,2013-04-01 12:02:00,
2013-04-01 07:12:00,23.0,13.0,29.86,NNW,337,7.0,14.0,64,0.00,,,0.00,,2013-04-01 12:12:00,
2013-04-01 07:22:00,23.0,13.0,29.86,NNW,331,8.0,14.0,64,0.00,,,0.00,,2013-04-01 12:22:00,
2013-04-01 07:32:00,23.0,14.0,29.87,NNW,331,6.0,11.0,67,0.00,,,0.00,,2013-04-01 12:32:00,
2013-04-01 07:42:00,23.0,14.0,29.87,NNW,331,6.0,11.0,67,0.00,,,0.00,,2013-04-01 12:42:00,
2013-04-01 07:52:00,23.0,14.0,29.88,NNW,336,7.0,13.0,67,0.00,,,0.00,,2013-04-01 12:52:00,
2013-04-01 08:02:00,23.0,14.0,29.88,NNW,338,8.0,17.0,67,0.00,,,0.00,,2013-04-01 13:02:00,
2013-04-01 08:12:00,23.0,14.0,29.88,NNW,338,8.0,17.0,67,0.00,,,0.00,,2013-04-01 13:12:00,
2013-04-01 08:22:00,23.0,14.0,29.88,NNW,338,8.0,17.0,67,0.00,,,0.00,,2013-04-01 13:22:00,
2013-04-01 08:32:00,23.0,14.0,29.89,North,359,6.0,11.0,69,0.00,,,0.00,,2013-04-01 13:32:00,
2013-04-01 08:42:00,23.0,14.0,29.89,North,359,6.0,11.0,69,0.00,,,0.00,,2013-04-01 13:42:00,
2013-04-01 08:52:00,23.0,14.0,29.89,North,2,6.0,13.0,69,0.00,,,0.00,,2013-04-01 13:52:00,
2013-04-01 09:03:00,24.0,14.0,29.90,North,351,9.0,18.0,64,0.00,,,0.00,,2013-04-01 14:03:00,
2013-04-01 09:12:00,24.0,14.0,29.90,North,351,9.0,18.0,64,0.00,,,0.00,,2013-04-01 14:12:00,
2013-04-01 09:22:00,24.0,13.0,29.90,NNW,338,8.0,15.0,63,0.00,,,0.00,,2013-04-01 14:22:00,
2013-04-01 09:32:00,25.0,14.0,29.90,North,355,8.0,13.0,62,0.00,,,0.00,,2013-04-01 14:32:00,
2013-04-01 09:42:00,25.0,14.0,29.90,North,355,8.0,13.0,62,0.00,,,0.00,,2013-04-01 14:42:00,
2013-04-01 09:53:00,25.0,13.0,29.90,North,352,9.0,17.0,59,0.00,,,0.00,,2013-04-01 14:53:00,
2013-04-01 10:03:00,25.0,13.0,29.90,NW,324,9.0,17.0,59,0.00,,,0.00,,2013-04-01 15:03:00,
2013-04-01 10:13:00,25.0,13.0,29.90,NW,324,9.0,17.0,59,0.00,,,0.00,,2013-04-01 15:13:00,
2013-04-01 10:22:00,25.0,13.0,29.90,NW,324,9.0,17.0,59,0.00,,,0.00,,2013-04-01 15:22:00,
2013-04-01 10:34:00,26.0,12.0,29.90,NNW,328,11.0,19.0,56,0.00,,,0.00,,2013-04-01 15:34:00,
2013-04-01 10:43:00,26.0,12.0,29.90,NNW,328,11.0,19.0,56,0.00,,,0.00,,2013-04-01 15:43:00,
2013-04-01 10:54:00,26.0,12.0,29.90,NNW,336,8.0,14.0,54,0.00,,,0.00,,2013-04-01 15:54:00,
2013-04-01 11:03:00,26.0,11.0,29.90,NNW,338,11.0,20.0,52,0.00,,,0.00,,2013-04-01 16:03:00,
2013-04-01 11:13:00,26.0,11.0,29.90,NNW,338,11.0,20.0,52,0.00,,,0.00,,2013-04-01 16:13:00,
2013-04-01 11:23:00,27.0,13.0,29.91,NNW,328,11.0,19.0,54,0.00,,,0.00,,2013-04-01 16:23:00,
2013-04-01 11:33:00,27.0,12.0,29.91,NNW,337,10.0,19.0,52,0.00,,,0.00,,2013-04-01 16:33:00,
2013-04-01 11:42:00,27.0,12.0,29.91,NNW,337,10.0,19.0,52,0.00,,,0.00,,2013-04-01 16:42:00,
2013-04-01 11:53:00,27.0,12.0,29.91,NNW,337,10.0,19.0,52,0.00,,,0.00,,2013-04-01 16:53:00,
2013-04-01 12:03:00,28.0,10.0,29.91,NW,326,9.0,16.0,46,0.00,,,0.00,,2013-04-01 17:03:00,
2013-04-01 12:12:00,28.0,10.0,29.91,NW,326,9.0,16.0,46,0.00,,,0.00,,2013-04-01 17:12:00,
2013-04-01 12:23:00,28.0,10.0,29.91,NNW,329,12.0,22.0,47,0.00,,,0.00,,2013-04-01 17:23:00,
2013-04-01 12:32:00,28.0,10.0,29.91,NNW,329,12.0,22.0,47,0.00,,,0.00,,2013-04-01 17:32:00,
2013-04-01 12:42:00,28.0,10.0,29.91,NNW,329,12.0,22.0,47,0.00,,,0.00,,2013-04-01 17:42:00,
2013-04-01 12:53:00,28.0,11.0,29.91,NNW,343,12.0,18.0,48,0.00,,,0.00,,2013-04-01 17:53:00,
2013-04-01 13:02:00,29.0,10.0,29.91,NW,321,10.0,20.0,45,0.00,,,0.00,,2013-04-01 18:02:00,
2013-04-01 13:12:00,29.0,10.0,29.91,NW,321,10.0,20.0,45,0.00,,,0.00,,2013-04-01 18:12:00,
2013-04-01 13:22:00,30.0,9.0,29.91,NW,318,9.0,16.0,41,0.00,,,0.00,,2013-04-01 18:22:00,
2013-04-01 13:32:00,30.0,10.0,29.91,NW,318,13.0,27.0,42,0.00,,,0.00,,2013-04-01 18:32:00,
2013-04-01 13:42:00,30.0,10.0,29.91,NW,318,13.0,27.0,42,0.00,,,0.00,,2013-04-01 18:42:00,
2013-04-01 13:52:00,30.0,9.0,29.91,WNW,298,12.0,24.0,41,0.00,,,0.00,,2013-04-01 18:52:00,
2013-04-01 14:03:00,30.0,9.0,29.90,NW,322,12.0,20.0,40,0.00,,,0.00,,2013-04-01 19:03:00,
2013-04-01 14:12:00,30.0,9.0,29.90,NW,322,12.0,20.0,40,0.00,,,0.00,,2013-04-01 19:12:00,
2013-04-01 14:23:00,30.0,9.0,29.90,NW,322,12.0,20.0,40,0.00,,,0.00,,2013-04-01 19:23:00,
2013-04-01 14:32:00,31.0,10.0,29.90,NNW,329,12.0,21.0,40,0.00,,,0.00,,2013-04-01 19:32:00,
2013-04-01 14:42:00,31.0,10.0,29.90,NNW,329,12.0,21.0,40,0.00,,,0.00,,2013-04-01 19:42:00,
2013-04-01 14:53:00,31.0,8.0,29.90,NNW,331,10.0,19.0,38,0.00,,,0.00,,2013-04-01 19:53:00,
2013-04-01 15:02:00,32.0,9.0,29.90,NNW,334,12.0,21.0,37,0.00,,,0.00,,2013-04-01 20:02:00,
2013-04-01 15:12:00,32.0,9.0,29.90,NNW,334,12.0,21.0,37,0.00,,,0.00,,2013-04-01 20:12:00,
2013-04-01 15:22:00,32.0,9.0,29.90,NNW,334,12.0,21.0,37,0.00,,,0.00,,2013-04-01 20:22:00,
2013-04-01 15:32:00,32.0,9.0,29.90,NNW,334,12.0,21.0,37,0.00,,,0.00,,2013-04-01 20:32:00,
2013-04-01 19:53:00,30.0,11.0,29.92,North,350,9.0,17.0,44,0.00,,,0.01,,2013-04-02 00:53:00,
2013-04-01 20:02:00,29.0,9.0,29.93,NNE,25,7.0,15.0,43,0.00,,,0.01,,2013-04-02 01:02:00,
2013-04-01 20:12:00,29.0,9.0,29.93,NNE,25,7.0,15.0,43,0.00,,,0.01,,2013-04-02 01:12:00,
2013-04-01 20:22:00,28.0,8.0,29.93,NNE,30,5.0,14.0,42,0.00,,,0.01,,2013-04-02 01:22:00,
2013-04-01 20:32:00,28.0,8.0,29.93,NNE,30,5.0,14.0,42,0.00,,,0.01,,2013-04-02 01:32:00,
2013-04-01 20:42:00,28.0,8.0,29.93,NNE,30,5.0,14.0,42,0.00,,,0.01,,2013-04-02 01:42:00,
2013-04-01 20:52:00,28.0,8.0,29.93,NNE,30,5.0,14.0,42,0.00,,,0.01,,2013-04-02 01:52:00,